createdAt,value
2019-04-30T00:00:00.971Z,100747.25
2019-04-30T00:02:38.415Z,100751.56
2019-04-30T00:05:05.426Z,100750.54
2019-04-30T00:07:35.758Z,100748.77
2019-04-30T00:10:09.442Z,100750.92
2019-04-30T00:12:39.702Z,100748.50
2019-04-30T00:15:11.098Z,100745.63
2019-04-30T00:17:41.109Z,100744.52
2019-04-30T00:20:10.829Z,100755.14
2019-04-30T00:22:47.058Z,100746.00
2019-04-30T00:25:11.898Z,100746.78
2019-04-30T00:27:41.549Z,100743.05
2019-04-30T00:30:11.412Z,100744.94
2019-04-30T00:32:43.654Z,100739.01
2019-04-30T00:35:16.174Z,100743.84
2019-04-30T00:37:44.978Z,100743.02
2019-04-30T00:40:15.452Z,100741.32
2019-04-30T00:42:45.768Z,100738.09
2019-04-30T00:45:15.607Z,100736.22
2019-04-30T00:47:47.868Z,100739.03
2019-04-30T00:50:16.578Z,100740.19
2019-04-30T00:52:46.234Z,100737.50
2019-04-30T00:55:15.872Z,100738.74
2019-04-30T00:57:47.421Z,100739.20
2019-04-30T01:00:25.101Z,100735.95
2019-04-30T01:02:51.162Z,100737.06
2019-04-30T01:05:21.727Z,100747.18
2019-04-30T01:07:51.928Z,100740.98
2019-04-30T01:10:24.784Z,100739.33
2019-04-30T01:12:53.406Z,100736.87
2019-04-30T01:15:23.409Z,100737.63
2019-04-30T01:17:53.979Z,100735.94
2019-04-30T01:20:31.389Z,100739.87
2019-04-30T01:22:56.335Z,100743.98
2019-04-30T01:25:25.967Z,100743.75
2019-04-30T01:27:55.690Z,100741.89
2019-04-30T01:30:25.393Z,100746.48
2019-04-30T01:32:56.557Z,100743.67
2019-04-30T01:35:29.056Z,100743.26
2019-04-30T01:37:59.455Z,100753.08
2019-04-30T01:40:29.230Z,100744.30
2019-04-30T01:42:59.313Z,100747.77
2019-04-30T01:45:31.641Z,100749.07
2019-04-30T01:48:08.459Z,100749.45
2019-04-30T01:50:33.707Z,100744.42
2019-04-30T01:53:04.779Z,100747.58
2019-04-30T01:55:50.789Z,100748.62
2019-04-30T01:58:39.339Z,100739.58
2019-04-30T02:01:10.595Z,100744.88
2019-04-30T02:03:40.255Z,100747.15
2019-04-30T02:06:11.587Z,100743.30
2019-04-30T02:08:41.288Z,100746.11
2019-04-30T02:11:10.917Z,100743.50
2019-04-30T02:13:40.576Z,100743.53
2019-04-30T02:16:10.207Z,100746.52
2019-04-30T02:18:40.125Z,100752.67
2019-04-30T02:21:11.448Z,100742.42
2019-04-30T02:23:41.189Z,100744.17
2019-04-30T02:26:10.815Z,100744.63
2019-04-30T02:28:40.480Z,100742.75
2019-04-30T02:31:10.110Z,100750.79
2019-04-30T02:33:41.404Z,100736.51
2019-04-30T02:36:24.523Z,100750.42
2019-04-30T02:38:56.050Z,100753.68
2019-04-30T02:41:28.679Z,100749.77
2019-04-30T02:43:59.880Z,100750.41
2019-04-30T02:46:32.260Z,100754.97
2019-04-30T02:49:03.590Z,100750.97
2019-04-30T02:51:33.785Z,100761.50
2019-04-30T02:54:09.881Z,100756.18
2019-04-30T02:56:41.209Z,100755.63
2019-04-30T02:59:10.839Z,100759.16
2019-04-30T03:01:41.615Z,100763.05
2019-04-30T03:04:11.247Z,100763.27
2019-04-30T03:06:40.915Z,100762.14
2019-04-30T03:09:10.946Z,100764.16
2019-04-30T03:11:41.101Z,100764.16
2019-04-30T03:14:11.143Z,100760.39
2019-04-30T03:16:42.860Z,100765.18
2019-04-30T03:19:19.527Z,100768.92
2019-04-30T03:21:52.989Z,100769.88
2019-04-30T03:24:22.608Z,100768.74
2019-04-30T03:26:52.587Z,100771.17
2019-04-30T03:29:24.005Z,100766.88
2019-04-30T03:31:54.301Z,100763.80
2019-04-30T03:34:25.536Z,100773.02
2019-04-30T03:36:55.281Z,100776.36
2019-04-30T03:39:24.900Z,100771.20
2019-04-30T03:41:54.554Z,100777.62
2019-04-30T03:44:25.989Z,100776.08
2019-04-30T03:46:55.533Z,100775.57
2019-04-30T03:49:25.163Z,100776.13
2019-04-30T03:51:54.821Z,100776.66
2019-04-30T03:54:24.444Z,100780.39
2019-04-30T03:56:55.800Z,100781.41
2019-04-30T03:59:25.520Z,100780.29
2019-04-30T04:02:12.787Z,100778.14
2019-04-30T04:04:53.156Z,100784.31
2019-04-30T04:07:33.294Z,100786.75
2019-04-30T04:10:20.850Z,100782.83
2019-04-30T04:12:50.521Z,100781.59
2019-04-30T04:15:20.151Z,100789.14
2019-04-30T04:17:50.373Z,100782.61
2019-04-30T04:20:20.536Z,100785.44
2019-04-30T04:22:50.165Z,100784.83
2019-04-30T04:25:20.587Z,100785.33
2019-04-30T04:27:51.088Z,100782.88
2019-04-30T04:30:21.186Z,100781.80
2019-04-30T04:32:50.825Z,100782.83
2019-04-30T04:35:20.482Z,100787.70
2019-04-30T04:37:50.105Z,100780.15
2019-04-30T04:40:21.048Z,100782.97
2019-04-30T04:42:50.963Z,100776.27
2019-04-30T04:45:20.609Z,100778.52
2019-04-30T04:47:50.678Z,100788.05
2019-04-30T04:50:20.443Z,100787.48
2019-04-30T04:52:50.067Z,100784.06
2019-04-30T04:55:22.143Z,100786.95
2019-04-30T04:57:51.062Z,100800.22
2019-04-30T05:00:21.503Z,100800.78
2019-04-30T05:02:55.581Z,100804.13
2019-04-30T05:05:25.240Z,100800.03
2019-04-30T05:07:54.865Z,100803.62
2019-04-30T05:10:26.780Z,100804.54
2019-04-30T05:12:56.517Z,100804.92
2019-04-30T05:15:26.398Z,100809.78
2019-04-30T05:17:56.264Z,100803.33
2019-04-30T05:20:25.914Z,100809.22
2019-04-30T05:22:55.545Z,100811.30
2019-04-30T05:25:25.209Z,100810.86
2019-04-30T05:27:54.842Z,100810.03
2019-04-30T05:30:24.497Z,100808.52
2019-04-30T05:32:54.125Z,100808.08
2019-04-30T05:35:23.973Z,100816.94
2019-04-30T05:37:55.039Z,100812.84
2019-04-30T05:40:24.707Z,100813.94
2019-04-30T05:42:54.333Z,100814.60
2019-04-30T05:45:24.067Z,100815.88
2019-04-30T05:47:53.697Z,100814.45
2019-04-30T05:50:23.637Z,100815.03
2019-04-30T05:52:53.266Z,100820.23
2019-04-30T05:55:22.933Z,100818.62
2019-04-30T05:57:56.210Z,100812.64
2019-04-30T06:00:24.082Z,100812.02
2019-04-30T06:02:53.710Z,100814.63
2019-04-30T06:05:24.078Z,100819.94
2019-04-30T06:07:55.451Z,100820.84
2019-04-30T06:10:27.049Z,100821.10
2019-04-30T06:13:10.046Z,100821.90
2019-04-30T06:15:53.142Z,100819.66
2019-04-30T06:18:22.765Z,100824.39
2019-04-30T06:20:52.569Z,100829.87
2019-04-30T06:23:22.334Z,100814.72
2019-04-30T06:25:59.383Z,100814.98
2019-04-30T06:28:24.304Z,100810.64
2019-04-30T06:30:54.497Z,100815.90
2019-04-30T06:33:24.208Z,100816.16
2019-04-30T06:35:55.775Z,100817.09
2019-04-30T06:38:25.409Z,100824.50
2019-04-30T06:40:55.056Z,100822.56
2019-04-30T06:43:25.554Z,100816.94
2019-04-30T06:45:55.302Z,100813.55
2019-04-30T06:48:25.293Z,100816.28
2019-04-30T06:50:54.928Z,100818.36
2019-04-30T06:53:24.588Z,100810.02
2019-04-30T06:55:54.207Z,100818.36
2019-04-30T06:58:24.074Z,100817.95
2019-04-30T07:00:53.698Z,100815.05
2019-04-30T07:03:24.099Z,100813.23
2019-04-30T07:05:53.738Z,100819.36
2019-04-30T07:08:39.638Z,100820.63
2019-04-30T07:11:21.845Z,100821.52
2019-04-30T07:13:52.296Z,100814.77
2019-04-30T07:16:22.354Z,100819.47
2019-04-30T07:18:52.216Z,100821.77
2019-04-30T07:21:22.156Z,100827.66
2019-04-30T07:23:52.109Z,100828.06
2019-04-30T07:26:24.368Z,100825.09
2019-04-30T07:28:55.318Z,100827.34
2019-04-30T07:31:25.048Z,100824.96
2019-04-30T07:33:54.706Z,100826.19
2019-04-30T07:36:42.505Z,100826.00
2019-04-30T07:38:56.725Z,100829.60
2019-04-30T07:41:30.788Z,100826.59
2019-04-30T07:43:59.308Z,100824.93
2019-04-30T07:46:29.954Z,100817.86
2019-04-30T07:49:00.180Z,100820.36
2019-04-30T07:51:32.080Z,100819.98
2019-04-30T07:54:04.153Z,100823.18
2019-04-30T07:56:38.031Z,100821.70
2019-04-30T07:59:05.506Z,100818.55
2019-04-30T08:01:35.129Z,100818.72
2019-04-30T08:04:22.886Z,100811.92
2019-04-30T08:06:52.532Z,100810.83
2019-04-30T08:09:22.360Z,100816.91
2019-04-30T08:11:52.316Z,100816.80
2019-04-30T08:14:24.509Z,100811.22
2019-04-30T08:16:53.813Z,100813.83
2019-04-30T08:19:23.475Z,100810.76
2019-04-30T08:21:53.108Z,100814.80
2019-04-30T08:24:22.766Z,100816.13
2019-04-30T08:26:53.017Z,100818.70
2019-04-30T08:29:22.729Z,100817.51
2019-04-30T08:31:52.382Z,100819.79
2019-04-30T08:34:22.470Z,100811.89
2019-04-30T08:36:53.327Z,100815.88
2019-04-30T08:39:23.034Z,100811.16
2019-04-30T08:41:52.671Z,100813.26
2019-04-30T08:44:22.400Z,100819.19
2019-04-30T08:46:52.431Z,100811.17
2019-04-30T08:49:22.600Z,100812.08
2019-04-30T08:51:52.692Z,100810.05
2019-04-30T08:54:22.457Z,100801.62
2019-04-30T08:56:52.094Z,100811.09
2019-04-30T08:59:22.283Z,100805.00
2019-04-30T09:01:51.905Z,100807.47
2019-04-30T09:04:21.611Z,100809.07
2019-04-30T09:06:51.249Z,100810.00
2019-04-30T09:09:21.594Z,100805.50
2019-04-30T09:11:55.390Z,100807.45
2019-04-30T09:14:22.785Z,100801.99
2019-04-30T09:16:54.269Z,100812.36
2019-04-30T09:19:24.212Z,100807.66
2019-04-30T09:21:54.174Z,100801.80
2019-04-30T09:24:23.846Z,100792.75
2019-04-30T09:26:53.494Z,100797.05
2019-04-30T09:29:23.123Z,100797.75
2019-04-30T09:31:52.802Z,100797.94
2019-04-30T09:34:22.806Z,100793.87
2019-04-30T09:36:52.808Z,100796.28
2019-04-30T09:39:23.169Z,100796.81
2019-04-30T09:41:52.883Z,100795.20
2019-04-30T09:44:22.519Z,100792.65
2019-04-30T09:46:52.187Z,100792.81
2019-04-30T09:49:22.442Z,100787.51
2019-04-30T09:51:52.424Z,100788.66
2019-04-30T09:54:22.737Z,100786.64
2019-04-30T09:56:52.887Z,100782.28
2019-04-30T09:59:22.636Z,100779.53
2019-04-30T10:01:52.488Z,100788.23
2019-04-30T10:04:23.049Z,100776.37
2019-04-30T10:06:54.279Z,100774.67
2019-04-30T10:09:24.011Z,100770.25
2019-04-30T10:11:59.575Z,100772.37
2019-04-30T10:14:29.330Z,100772.92
2019-04-30T10:17:00.616Z,100770.52
2019-04-30T10:19:30.247Z,100772.74
2019-04-30T10:21:59.905Z,100766.03
2019-04-30T10:24:29.649Z,100771.59
2019-04-30T10:27:00.311Z,100761.80
2019-04-30T10:29:30.206Z,100755.81
2019-04-30T10:31:59.889Z,100758.09
2019-04-30T10:34:29.553Z,100760.66
2019-04-30T10:37:01.249Z,100758.05
2019-04-30T10:39:30.932Z,100751.41
2019-04-30T10:42:00.648Z,100755.52
2019-04-30T10:44:30.345Z,100756.55
2019-04-30T10:46:59.997Z,100750.51
2019-04-30T10:49:29.615Z,100749.26
2019-04-30T10:52:01.117Z,100741.39
2019-04-30T10:54:30.705Z,100742.64
2019-04-30T10:57:00.363Z,100734.95
2019-04-30T10:59:29.989Z,100733.00
2019-04-30T11:01:59.648Z,100732.23
2019-04-30T11:04:29.346Z,100728.97
2019-04-30T11:07:00.582Z,100740.98
2019-04-30T11:09:31.009Z,100732.91
2019-04-30T11:12:02.970Z,100737.92
2019-04-30T11:14:32.364Z,100727.84
2019-04-30T11:17:02.381Z,100731.16
2019-04-30T11:19:32.298Z,100731.56
2019-04-30T11:22:02.355Z,100738.58
2019-04-30T11:24:38.176Z,100732.91
2019-04-30T11:27:04.130Z,100733.42
2019-04-30T11:29:34.258Z,100724.76
2019-04-30T11:32:05.936Z,100722.17
2019-04-30T11:34:35.702Z,100709.76
2019-04-30T11:37:05.392Z,100709.76
2019-04-30T11:39:35.184Z,100710.05
2019-04-30T11:42:04.985Z,100711.30
2019-04-30T11:44:35.044Z,100721.30
2019-04-30T11:47:13.592Z,100721.30
2019-04-30T11:49:43.254Z,100693.21
2019-04-30T11:52:12.888Z,100703.80
2019-04-30T11:54:49.200Z,100704.44
2019-04-30T11:57:13.928Z,100706.17
2019-04-30T11:59:43.576Z,100683.28
2019-04-30T12:02:21.818Z,100683.28
2019-04-30T12:04:52.200Z,100700.94
2019-04-30T12:07:32.201Z,100703.05
2019-04-30T12:10:05.896Z,100701.34
2019-04-30T12:12:35.613Z,100701.64
2019-04-30T12:15:09.192Z,100696.69
2019-04-30T12:17:38.924Z,100692.20
2019-04-30T12:20:08.812Z,100692.18
2019-04-30T12:22:39.701Z,100693.34
2019-04-30T12:25:10.040Z,100688.29
2019-04-30T12:27:39.820Z,100692.59
2019-04-30T12:30:10.513Z,100683.44
2019-04-30T12:32:40.337Z,100678.70
2019-04-30T12:35:10.489Z,100690.36
2019-04-30T12:37:40.137Z,100684.42
2019-04-30T12:40:25.589Z,100684.64
2019-04-30T12:42:41.337Z,100685.61
2019-04-30T12:45:11.233Z,100680.55
2019-04-30T12:47:45.263Z,100647.97
2019-04-30T12:50:32.281Z,100647.97
2019-04-30T12:53:03.591Z,100683.22
2019-04-30T12:55:34.903Z,100686.49
2019-04-30T12:58:05.161Z,100677.28
2019-04-30T13:00:35.095Z,100672.09
2019-04-30T13:03:04.723Z,100679.06
2019-04-30T13:05:34.382Z,100676.09
2019-04-30T13:08:04.671Z,100680.08
2019-04-30T13:10:35.051Z,100683.13
2019-04-30T13:13:05.251Z,100673.93
2019-04-30T13:15:35.214Z,100677.30
2019-04-30T13:18:04.839Z,100666.43
2019-04-30T13:20:34.604Z,100667.56
2019-04-30T13:23:04.786Z,100663.33
2019-04-30T13:25:35.700Z,100652.12
2019-04-30T13:28:07.498Z,100653.34
2019-04-30T13:30:39.539Z,100649.50
2019-04-30T13:33:11.435Z,100646.05
2019-04-30T13:35:41.080Z,100652.78
2019-04-30T13:38:15.173Z,100652.25
2019-04-30T13:40:49.349Z,100642.34
2019-04-30T13:43:20.652Z,100647.97
2019-04-30T13:45:51.867Z,100643.26
2019-04-30T13:48:22.068Z,100633.03
2019-04-30T13:50:51.694Z,100634.20
2019-04-30T13:53:21.344Z,100632.51
2019-04-30T13:55:50.988Z,100640.00
2019-04-30T13:58:20.632Z,100645.08
2019-04-30T14:00:50.274Z,100638.16
2019-04-30T14:03:29.050Z,100638.86
2019-04-30T14:05:59.404Z,100627.48
2019-04-30T14:08:30.782Z,100635.52
2019-04-30T14:11:00.409Z,100633.39
2019-04-30T14:13:30.067Z,100635.05
2019-04-30T14:15:59.694Z,100631.45
2019-04-30T14:18:33.836Z,100622.81
2019-04-30T14:21:01.088Z,100633.67
2019-04-30T14:23:31.338Z,100630.45
2019-04-30T14:26:01.271Z,100618.77
2019-04-30T14:28:31.303Z,100627.84
2019-04-30T14:31:00.966Z,100618.97
2019-04-30T14:33:31.209Z,100628.09
2019-04-30T14:36:00.974Z,100633.52
2019-04-30T14:38:30.563Z,100628.53
2019-04-30T14:41:01.286Z,100623.92
2019-04-30T14:43:33.724Z,100630.19
2019-04-30T14:46:22.627Z,100627.52
2019-04-30T14:48:54.885Z,100628.84
2019-04-30T14:51:25.084Z,100622.22
2019-04-30T14:54:02.433Z,100621.35
2019-04-30T14:56:33.707Z,100622.42
2019-04-30T14:59:18.694Z,100618.81
2019-04-30T15:01:52.921Z,100614.35
2019-04-30T15:04:22.574Z,100619.97
2019-04-30T15:06:52.242Z,100622.09
2019-04-30T15:09:22.292Z,100623.39
2019-04-30T15:11:52.138Z,100618.64
2019-04-30T15:14:21.760Z,100622.53
2019-04-30T15:16:51.559Z,100625.89
2019-04-30T15:19:21.185Z,100616.66
2019-04-30T15:21:50.845Z,100623.40
2019-04-30T15:24:29.303Z,100616.75
2019-04-30T15:26:58.986Z,100620.64
2019-04-30T15:29:29.110Z,100622.12
2019-04-30T15:31:59.389Z,100615.66
2019-04-30T15:34:29.424Z,100607.70
2019-04-30T15:36:59.262Z,100609.77
2019-04-30T15:39:36.365Z,100604.81
2019-04-30T15:42:06.164Z,100601.06
2019-04-30T15:44:39.986Z,100605.69
2019-04-30T15:47:09.155Z,100605.79
2019-04-30T15:49:38.667Z,100604.98
2019-04-30T15:52:10.626Z,100610.13
2019-04-30T15:54:39.655Z,100608.04
2019-04-30T15:57:09.280Z,100611.66
2019-04-30T15:59:40.405Z,100600.98
2019-04-30T16:02:18.785Z,100595.67
2019-04-30T16:04:53.069Z,100592.00
2019-04-30T16:07:22.862Z,100598.73
2019-04-30T16:10:10.421Z,100604.72
2019-04-30T16:12:58.749Z,100598.98
2019-04-30T16:15:29.776Z,100603.88
2019-04-30T16:18:01.074Z,100600.45
2019-04-30T16:20:30.969Z,100594.53
2019-04-30T16:23:00.665Z,100582.62
2019-04-30T16:25:30.433Z,100576.34
2019-04-30T16:28:00.027Z,100584.87
2019-04-30T16:30:29.677Z,100589.63
2019-04-30T16:32:59.701Z,100588.19
2019-04-30T16:35:29.611Z,100586.36
2019-04-30T16:37:59.510Z,100587.03
2019-04-30T16:40:29.172Z,100590.67
2019-04-30T16:42:58.804Z,100585.35
2019-04-30T16:45:29.068Z,100589.13
2019-04-30T16:47:58.764Z,100588.98
2019-04-30T16:50:29.900Z,100590.50
2019-04-30T16:52:59.625Z,100588.66
2019-04-30T16:55:29.272Z,100592.91
2019-04-30T16:57:58.902Z,100590.80
2019-04-30T17:00:30.719Z,100588.18
2019-04-30T17:03:01.667Z,100598.45
2019-04-30T17:05:39.601Z,100584.23
2019-04-30T17:08:16.817Z,100589.81
2019-04-30T17:10:50.361Z,100583.04
2019-04-30T17:13:21.087Z,100588.31
2019-04-30T17:15:58.124Z,100586.17
2019-04-30T17:18:29.652Z,100585.77
2019-04-30T17:20:59.102Z,100590.18
2019-04-30T17:23:29.328Z,100590.05
2019-04-30T17:25:58.963Z,100591.34
2019-04-30T17:28:28.623Z,100584.03
2019-04-30T17:30:58.904Z,100590.60
2019-04-30T17:33:28.580Z,100590.26
2019-04-30T17:35:58.200Z,100583.66
2019-04-30T17:38:27.848Z,100591.36
2019-04-30T17:40:57.481Z,100593.64
2019-04-30T17:43:27.143Z,100597.95
2019-04-30T17:45:58.524Z,100593.25
2019-04-30T17:48:29.141Z,100597.31
2019-04-30T17:51:00.335Z,100598.42
2019-04-30T17:53:30.854Z,100601.03
2019-04-30T17:56:00.491Z,100598.24
2019-04-30T17:58:30.145Z,100601.27
2019-04-30T18:01:01.415Z,100602.38
2019-04-30T18:03:31.142Z,100602.25
2019-04-30T18:06:00.776Z,100609.58
2019-04-30T18:08:30.542Z,100606.94
2019-04-30T18:11:00.245Z,100606.56
2019-04-30T18:13:29.887Z,100608.39
2019-04-30T18:16:00.456Z,100612.66
2019-04-30T18:18:31.799Z,100619.67
2019-04-30T18:21:06.084Z,100613.76
2019-04-30T18:23:50.164Z,100615.67
2019-04-30T18:26:19.788Z,100620.22
2019-04-30T18:28:49.441Z,100625.80
2019-04-30T18:31:19.078Z,100630.41
2019-04-30T18:33:49.284Z,100629.02
2019-04-30T18:36:20.629Z,100635.86
2019-04-30T18:38:50.621Z,100629.34
2019-04-30T18:41:20.255Z,100634.73
2019-04-30T18:43:49.915Z,100634.46
2019-04-30T18:46:19.553Z,100641.22
2019-04-30T18:48:50.273Z,100635.94
2019-04-30T18:51:35.919Z,100639.67
2019-04-30T18:53:52.089Z,100638.70
2019-04-30T18:56:22.137Z,100645.45
2019-04-30T18:58:52.077Z,100652.08
2019-04-30T19:01:22.077Z,100654.16
2019-04-30T19:03:51.706Z,100657.90
2019-04-30T19:06:26.058Z,100663.18
2019-04-30T19:09:12.458Z,100668.13
2019-04-30T19:11:43.825Z,100663.09
2019-04-30T19:14:15.098Z,100662.84
2019-04-30T19:16:55.136Z,100662.01
2019-04-30T19:19:26.408Z,100672.41
2019-04-30T19:21:56.067Z,100666.97
2019-04-30T19:24:25.726Z,100665.48
2019-04-30T19:26:55.397Z,100671.15
2019-04-30T19:29:25.013Z,100672.61
2019-04-30T19:31:54.866Z,100669.45
2019-04-30T19:34:24.602Z,100675.98
2019-04-30T19:36:54.390Z,100674.71
2019-04-30T19:39:24.032Z,100677.44
2019-04-30T19:41:53.689Z,100680.84
2019-04-30T19:44:23.346Z,100676.83
2019-04-30T19:46:53.368Z,100674.45
2019-04-30T19:49:22.988Z,100679.49
2019-04-30T19:52:05.591Z,100676.34
2019-04-30T19:54:24.059Z,100678.52
2019-04-30T19:56:53.721Z,100685.97
2019-04-30T19:59:23.340Z,100683.87
2019-04-30T20:01:53.386Z,100682.61
2019-04-30T20:04:32.608Z,100678.90
2019-04-30T20:06:54.349Z,100680.13
2019-04-30T20:09:23.982Z,100685.76
2019-04-30T20:11:56.626Z,100681.72
2019-04-30T20:14:24.959Z,100684.84
2019-04-30T20:16:54.926Z,100687.80
2019-04-30T20:19:24.868Z,100682.41
2019-04-30T20:21:54.972Z,100686.97
2019-04-30T20:24:24.960Z,100685.42
2019-04-30T20:27:04.960Z,100686.38
2019-04-30T20:29:25.929Z,100689.02
2019-04-30T20:31:55.735Z,100687.42
2019-04-30T20:34:25.391Z,100688.88
2019-04-30T20:36:55.024Z,100690.80
2019-04-30T20:39:29.363Z,100689.34
2019-04-30T20:41:59.260Z,100689.20
2019-04-30T20:44:29.114Z,100687.66
2019-04-30T20:46:59.142Z,100687.89
2019-04-30T20:49:29.209Z,100696.61
2019-04-30T20:51:59.082Z,100685.39
2019-04-30T20:54:29.186Z,100689.20
2019-04-30T20:56:59.108Z,100689.80
2019-04-30T20:59:29.046Z,100693.61
2019-04-30T21:01:58.721Z,100695.05
2019-04-30T21:04:28.389Z,100694.69
2019-04-30T21:06:59.507Z,100694.44
2019-04-30T21:09:29.253Z,100695.97
2019-04-30T21:11:58.920Z,100701.09
2019-04-30T21:14:28.539Z,100698.92
2019-04-30T21:16:58.470Z,100701.20
2019-04-30T21:19:28.128Z,100701.92
2019-04-30T21:21:59.490Z,100702.52
2019-04-30T21:24:29.291Z,100705.61
2019-04-30T21:26:58.918Z,100705.00
2019-04-30T21:29:29.571Z,100697.66
2019-04-30T21:32:06.700Z,100707.45
2019-04-30T21:34:39.372Z,100707.63
2019-04-30T21:37:09.430Z,100709.62
2019-04-30T21:39:39.040Z,100701.48
2019-04-30T21:42:09.294Z,100702.80
2019-04-30T21:44:39.113Z,100707.33
2019-04-30T21:47:08.842Z,100706.48
2019-04-30T21:49:38.504Z,100711.72
2019-04-30T21:52:08.130Z,100707.38
2019-04-30T21:54:38.792Z,100706.03
2019-04-30T21:57:08.485Z,100697.41
2019-04-30T21:59:38.856Z,100693.35
2019-04-30T22:02:09.020Z,100694.88
2019-04-30T22:04:38.669Z,100703.79
2019-04-30T22:07:09.352Z,100702.53
2019-04-30T22:09:39.130Z,100707.84
2019-04-30T22:12:09.248Z,100710.84
2019-04-30T22:14:38.892Z,100702.52
2019-04-30T22:17:09.296Z,100711.08
2019-04-30T22:19:38.944Z,100701.27
2019-04-30T22:22:09.369Z,100700.08
2019-04-30T22:24:39.102Z,100691.19
2019-04-30T22:27:08.726Z,100692.84
2019-04-30T22:29:41.919Z,100695.30
2019-04-30T22:32:09.699Z,100695.89
2019-04-30T22:34:39.352Z,100698.64
2019-04-30T22:37:08.981Z,100697.29
2019-04-30T22:39:40.280Z,100691.58
2019-04-30T22:42:25.029Z,100693.95
2019-04-30T22:44:54.996Z,100696.61
2019-04-30T22:47:25.040Z,100692.46
2019-04-30T22:49:54.687Z,100696.73
2019-04-30T22:52:24.321Z,100695.05
2019-04-30T22:54:54.374Z,100687.27
2019-04-30T22:57:24.027Z,100688.74
2019-04-30T22:59:53.656Z,100677.70
2019-04-30T23:02:28.210Z,100680.42
2019-04-30T23:04:58.909Z,100680.67
2019-04-30T23:07:28.839Z,100684.73
2019-04-30T23:09:58.522Z,100678.17
2019-04-30T23:12:28.233Z,100676.65
2019-04-30T23:14:57.867Z,100674.03
2019-04-30T23:17:27.616Z,100668.31
2019-04-30T23:19:57.348Z,100666.75
2019-04-30T23:22:27.262Z,100662.44
2019-04-30T23:24:57.229Z,100662.44
2019-04-30T23:27:26.890Z,100650.73
2019-04-30T23:30:03.125Z,100653.10
2019-04-30T23:32:27.870Z,100656.69
2019-04-30T23:34:57.505Z,100646.76
2019-04-30T23:37:27.228Z,100649.08
2019-04-30T23:39:58.434Z,100647.86
2019-04-30T23:42:28.091Z,100637.75
2019-04-30T23:44:58.008Z,100634.41
2019-04-30T23:47:27.662Z,100632.72
2019-04-30T23:49:57.286Z,100626.16
2019-04-30T23:52:27.246Z,100635.80
2019-04-30T23:54:56.873Z,100633.66
2019-04-30T23:57:26.515Z,100630.52
2019-04-30T23:59:56.145Z,100620.29
